Time;durP1;ratioP1;P1;durP2;ratioP2;P2;SDS_P1;SDS_P2;PMS_P1;PMS_P2;Temp;Humidity;BMP_temperature;BMP_pressure;BME280_temperature;BME280_humidity;BME280_pressure;Samples;Min_cycle;Max_cycle;Signal;HPM_P1;HPM_P2
2021/06/20 00:01:45;;;;;;;9.98;5.38;;;;;;;21.34;51.58;100530.22;5088991;28;20115;-62
2021/06/20 00:04:11;;;;;;;8.52;5.72;;;;;;;21.31;51.61;100520.56;5089613;28;20121;-62
2021/06/20 00:06:38;;;;;;;8.27;4.90;;;;;;;21.37;51.77;100536.19;5089797;28;20101;-62
2021/06/20 00:09:07;;;;;;;8.57;5.50;;;;;;;21.25;51.62;100520.41;5089131;28;20101;-62
2021/06/20 00:11:36;;;;;;;7.20;4.97;;;;;;;21.26;51.67;100517.53;5089074;28;20442;-62
2021/06/20 00:14:02;;;;;;;8.35;5.30;;;;;;;21.31;51.65;100527.88;5089709;28;20040;-62
2021/06/20 00:16:28;;;;;;;6.13;5.40;;;;;;;21.29;52.01;100519.03;5089539;28;20499;-62
2021/06/20 00:18:53;;;;;;;7.80;5.40;;;;;;;21.19;52.02;100517.38;5088846;28;20040;-61
2021/06/20 00:21:20;;;;;;;6.30;5.07;;;;;;;21.25;51.99;100517.69;5089240;28;20480;-61
2021/06/20 00:23:47;;;;;;;8.50;5.35;;;;;;;21.24;52.35;100525.03;5089641;28;20036;-63
2021/06/20 00:26:13;;;;;;;6.07;5.28;;;;;;;21.10;52.03;100512.13;5088228;28;20395;-60
2021/06/20 00:28:39;;;;;;;7.93;5.18;;;;;;;21.20;52.10;100516.34;5089024;28;20411;-61
2021/06/20 00:31:06;;;;;;;9.75;5.60;;;;;;;20.92;52.50;100477.84;5089084;28;20114;-62
2021/06/20 00:33:32;;;;;;;7.75;5.70;;;;;;;21.18;52.31;100521.13;5090104;28;20170;-61
2021/06/20 00:35:58;;;;;;;6.68;5.47;;;;;;;20.75;52.32;100461.56;5089709;28;20055;-62
2021/06/20 00:38:24;;;;;;;8.40;5.18;;;;;;;20.74;52.24;100456.28;5091385;28;20075;-61
2021/06/20 00:40:50;;;;;;;6.53;5.47;;;;;;;21.11;52.01;100522.00;5092051;28;20059;-62
2021/06/20 00:43:15;;;;;;;7.30;5.35;;;;;;;21.08;52.62;100518.63;5093186;28;20044;-61
2021/06/20 00:45:41;;;;;;;11.35;5.63;;;;;;;21.08;52.94;100520.47;5093279;28;20118;-61
2021/06/20 00:48:07;;;;;;;7.15;4.80;;;;;;;20.95;52.81;100510.13;5092243;28;20407;-61
2021/06/20 00:50:33;;;;;;;10.25;5.25;;;;;;;21.07;52.60;100530.53;5092504;28;20491;-61
2021/06/20 00:53:00;;;;;;;7.38;5.03;;;;;;;21.07;52.70;100530.53;5092111;28;20042;-61
2021/06/20 00:55:31;;;;;;;7.03;5.20;;;;;;;21.05;52.60;100529.84;5092387;28;20115;-62
2021/06/20 00:58:01;;;;;;;9.32;5.55;;;;;;;21.06;53.02;100526.09;5092372;28;20131;-62
2021/06/20 01:00:28;;;;;;;7.65;4.95;;;;;;;21.03;52.86;100529.19;5091999;28;20094;-62
2021/06/20 01:02:53;;;;;;;8.45;5.25;;;;;;;20.96;52.87;100514.56;5092303;28;20048;-61
2021/06/20 01:05:20;;;;;;;8.90;5.22;;;;;;;21.04;52.59;100535.47;5092288;28;20111;-62
2021/06/20 01:07:50;;;;;;;8.70;4.93;;;;;;;20.96;53.07;100519.16;5090893;28;20044;-62
2021/06/20 01:10:18;;;;;;;8.30;5.25;;;;;;;21.03;52.64;100531.91;5092595;28;20447;-61
2021/06/20 01:12:44;;;;;;;6.55;4.78;;;;;;;21.04;52.54;100525.44;5091877;28;20063;-57
2021/06/20 01:15:10;;;;;;;9.15;5.32;;;;;;;20.93;53.05;100521.22;5092277;28;20054;-62
2021/06/20 01:17:36;;;;;;;7.53;5.00;;;;;;;20.69;52.56;100467.66;5092375;28;20063;-62
2021/06/20 01:20:07;;;;;;;10.60;5.40;;;;;;;21.08;52.82;100537.66;5092283;28;20071;-62
2021/06/20 01:22:36;;;;;;;5.63;4.63;;;;;;;21.00;52.85;100523.22;5092009;28;20039;-61
2021/06/20 01:25:15;;;;;;;9.20;5.30;;;;;;;21.09;53.36;100543.94;5092423;28;20032;-62
2021/06/20 01:27:49;;;;;;;7.75;5.10;;;;;;;21.11;53.09;100541.06;5091865;28;20039;-61
2021/06/20 01:30:19;;;;;;;6.68;4.72;;;;;;;20.74;52.91;100481.63;5091662;28;20024;-59
2021/06/20 01:32:45;;;;;;;7.15;4.82;;;;;;;21.11;52.75;100541.94;5092192;28;20115;-60
2021/06/20 01:35:12;;;;;;;5.95;4.82;;;;;;;21.08;53.17;100536.81;5092322;28;20119;-62
2021/06/20 01:37:38;;;;;;;7.90;5.07;;;;;;;21.14;52.89;100540.72;5091373;28;20042;-62
2021/06/20 01:40:06;;;;;;;8.85;5.55;;;;;;;21.14;53.04;100541.56;5090620;28;20036;-62
2021/06/20 01:42:32;;;;;;;8.48;4.97;;;;;;;21.15;53.22;100537.81;5091908;28;20031;-62
2021/06/20 01:44:58;;;;;;;7.55;5.00;;;;;;;21.20;53.23;100550.88;5091161;28;20043;-61
2021/06/20 01:47:25;;;;;;;7.78;5.38;;;;;;;21.18;53.09;100544.78;5091562;28;20032;-63
2021/06/20 01:49:52;;;;;;;7.95;5.30;;;;;;;21.22;53.18;100543.41;5091205;28;20031;-62
2021/06/20 01:52:19;;;;;;;6.80;5.20;;;;;;;21.24;53.25;100552.25;5091893;28;20046;-60
2021/06/20 01:54:50;;;;;;;9.43;5.38;;;;;;;21.25;53.47;100553.94;5091502;28;20043;-62
2021/06/20 01:57:17;;;;;;;6.93;5.13;;;;;;;20.85;53.32;100483.13;5091700;28;20062;-63
2021/06/20 01:59:43;;;;;;;7.60;5.45;;;;;;;21.30;53.33;100548.81;5092350;28;20491;-61
2021/06/20 02:02:08;;;;;;;8.75;5.57;;;;;;;21.34;53.37;100552.88;5090420;28;20035;-61
2021/06/20 02:04:34;;;;;;;9.27;5.47;;;;;;;21.33;53.45;100553.03;5091192;28;20133;-61
2021/06/20 02:06:59;;;;;;;6.90;5.45;;;;;;;21.30;53.30;100528.91;5090920;28;20136;-61
2021/06/20 02:09:25;;;;;;;9.07;5.65;;;;;;;21.44;53.68;100552.66;5091151;28;20081;-61
2021/06/20 02:11:50;;;;;;;8.50;5.78;;;;;;;21.52;53.13;100552.63;5090206;28;20063;-61
2021/06/20 02:14:16;;;;;;;11.95;5.85;;;;;;;21.49;53.21;100538.53;5089831;28;20428;-62
2021/06/20 02:16:42;;;;;;;10.02;6.15;;;;;;;21.70;52.91;100548.81;5090856;28;20574;-61
2021/06/20 02:19:08;;;;;;;11.90;5.82;;;;;;;21.86;52.87;100550.59;5090979;28;20035;-61
2021/06/20 02:21:33;;;;;;;9.27;5.75;;;;;;;22.02;52.48;100532.44;5091077;28;20111;-61
2021/06/20 02:23:58;;;;;;;12.02;6.50;;;;;;;22.21;51.63;100531.06;5089634;28;20031;-62
2021/06/20 02:26:24;;;;;;;8.60;6.10;;;;;;;22.64;50.79;100547.78;5090534;28;20445;-61
2021/06/20 02:28:49;;;;;;;16.63;6.03;;;;;;;22.69;50.37;100503.56;5089494;28;20412;-61
2021/06/20 02:31:15;;;;;;;8.60;6.03;;;;;;;23.27;49.17;100543.84;5091785;28;20024;-61
2021/06/20 02:33:40;;;;;;;7.65;5.55;;;;;;;23.63;48.41;100553.97;5090578;28;20036;-62
2021/06/20 02:36:06;;;;;;;7.65;5.45;;;;;;;23.98;47.73;100553.28;5090207;28;20039;-62
2021/06/20 02:38:31;;;;;;;11.35;6.47;;;;;;;24.36;46.52;100538.53;5090370;28;20035;-62
2021/06/20 02:40:57;;;;;;;10.55;6.03;;;;;;;24.57;45.27;100509.41;5090580;28;20032;-62
2021/06/20 02:43:22;;;;;;;9.82;6.45;;;;;;;25.31;44.81;100550.94;5090553;28;20140;-63
2021/06/20 02:45:48;;;;;;;8.55;5.85;;;;;;;25.65;43.58;100540.97;5089383;28;20028;-62
2021/06/20 02:48:13;;;;;;;9.70;6.15;;;;;;;25.71;43.53;100528.34;5090192;28;20043;-62
2021/06/20 02:50:39;;;;;;;10.27;5.97;;;;;;;25.91;43.09;100545.69;5090059;28;20042;-62
2021/06/20 02:53:04;;;;;;;14.60;6.10;;;;;;;26.03;42.73;100554.16;5090022;28;20036;-63
2021/06/20 02:55:29;;;;;;;10.50;5.55;;;;;;;26.19;42.02;100547.44;5090119;28;20027;-62
2021/06/20 02:57:55;;;;;;;9.60;6.30;;;;;;;26.25;41.71;100501.84;5090603;28;20479;-62
2021/06/20 03:00:20;;;;;;;14.13;6.00;;;;;;;26.99;40.45;100545.72;5088409;28;20034;-62
2021/06/20 03:02:46;;;;;;;8.48;5.88;;;;;;;27.22;39.29;100501.25;5090225;28;20467;-64
2021/06/20 03:05:12;;;;;;;7.95;5.63;;;;;;;28.11;38.04;100554.72;5089179;28;20028;-63
2021/06/20 03:07:37;;;;;;;10.95;6.30;;;;;;;28.49;37.64;100537.31;5089855;28;20059;-63
2021/06/20 03:10:04;;;;;;;13.13;6.90;;;;;;;29.03;36.42;100566.25;5089788;28;20464;-63
2021/06/20 03:12:32;;;;;;;10.10;6.80;;;;;;;29.40;35.87;100554.38;5090440;28;20640;-62
2021/06/20 03:14:58;;;;;;;13.38;6.30;;;;;;;29.32;35.23;100473.66;5089819;28;20052;-63
2021/06/20 03:17:23;;;;;;;8.30;6.07;;;;;;;30.06;34.38;100535.25;5089959;28;20048;-63
2021/06/20 03:19:50;;;;;;;9.00;5.68;;;;;;;30.40;34.13;100531.94;5090658;28;20038;-62
2021/06/20 03:22:16;;;;;;;8.73;6.07;;;;;;;30.92;33.56;100539.53;5089980;28;20112;-62
2021/06/20 03:24:45;;;;;;;9.23;6.10;;;;;;;31.47;31.46;100559.53;5089748;28;20028;-63
2021/06/20 03:27:11;;;;;;;9.00;5.43;;;;;;;31.99;30.81;100543.91;5090027;28;20198;-63
2021/06/20 03:29:37;;;;;;;11.38;6.10;;;;;;;32.44;29.69;100548.56;5088834;28;20376;-62
2021/06/20 03:32:03;;;;;;;8.25;6.05;;;;;;;32.69;29.39;100538.97;5089445;28;20110;-63
2021/06/20 03:34:31;;;;;;;6.70;5.32;;;;;;;32.81;29.38;100538.03;5088146;28;20047;-63
2021/06/20 03:36:56;;;;;;;7.63;5.78;;;;;;;32.93;28.95;100536.88;5089974;28;20043;-63
2021/06/20 03:39:22;;;;;;;11.27;5.70;;;;;;;33.13;28.84;100537.38;5090105;28;20115;-64
2021/06/20 03:41:47;;;;;;;5.80;5.00;;;;;;;33.43;27.91;100530.56;5089322;28;20028;-63
2021/06/20 03:44:13;;;;;;;7.80;4.82;;;;;;;33.74;27.32;100537.28;5089978;28;20039;-64
2021/06/20 03:46:38;;;;;;;6.72;4.95;;;;;;;34.00;26.57;100520.88;5090200;28;20476;-63
2021/06/20 03:49:05;;;;;;;10.65;4.47;;;;;;;34.37;25.82;100543.41;5089664;28;20039;-62
2021/06/20 03:51:31;;;;;;;6.13;4.50;;;;;;;34.74;25.59;100540.66;5089255;28;20040;-62
2021/06/20 03:53:56;;;;;;;4.35;3.60;;;;;;;35.24;24.79;100545.06;5089683;28;20032;-62
2021/06/20 03:56:22;;;;;;;5.90;3.60;;;;;;;35.58;23.82;100534.34;5091033;28;20131;-63
2021/06/20 03:58:48;;;;;;;5.85;3.67;;;;;;;36.00;23.33;100526.88;5088217;28;20114;-62
2021/06/20 04:01:13;;;;;;;6.72;3.80;;;;;;;36.58;22.38;100530.53;5089213;28;20032;-62
2021/06/20 04:03:39;;;;;;;4.75;3.40;;;;;;;37.10;22.03;100539.63;5089711;28;20032;-62
2021/06/20 04:06:04;;;;;;;4.43;3.95;;;;;;;37.73;20.74;100531.75;5089954;28;20043;-62
2021/06/20 04:08:30;;;;;;;8.45;3.55;;;;;;;38.38;20.60;100533.50;5089229;28;20514;-61
2021/06/20 04:10:55;;;;;;;5.45;3.53;;;;;;;38.97;19.58;100535.44;5089114;28;20028;-63
2021/06/20 04:13:21;;;;;;;5.45;3.83;;;;;;;39.48;19.12;100536.72;5092062;28;20048;-62
2021/06/20 04:15:47;;;;;;;6.72;3.80;;;;;;;39.95;18.56;100527.66;5092471;28;20487;-63
2021/06/20 04:18:12;;;;;;;4.60;2.92;;;;;;;40.17;18.29;100527.81;5091827;28;20441;-63
2021/06/20 04:20:38;;;;;;;5.95;3.40;;;;;;;40.31;18.23;100535.47;5092930;28;20043;-62
2021/06/20 04:23:04;;;;;;;5.00;3.42;;;;;;;40.54;17.66;100527.22;5091930;28;20112;-62
2021/06/20 04:25:29;;;;;;;6.85;3.88;;;;;;;40.88;17.61;100521.22;5093542;28;20039;-64
2021/06/20 04:27:55;;;;;;;5.20;4.00;;;;;;;41.31;16.68;100527.63;5092795;28;20118;-61
2021/06/20 04:30:22;;;;;;;6.22;3.72;;;;;;;41.49;16.77;100517.41;5093502;28;20040;-63
2021/06/20 04:32:49;;;;;;;8.07;4.28;;;;;;;42.24;15.86;100524.63;5093065;28;20042;-63
2021/06/20 04:35:16;;;;;;;4.50;3.97;;;;;;;43.06;14.92;100531.94;5093304;28;20407;-62
2021/06/20 04:37:42;;;;;;;6.32;3.90;;;;;;;43.59;14.68;100530.84;5093138;28;20032;-62
2021/06/20 04:40:13;;;;;;;4.68;3.83;;;;;;;43.79;14.73;100499.56;5092654;28;20031;-62
2021/06/20 04:42:41;;;;;;;8.43;4.45;;;;;;;44.16;14.17;100523.41;5091749;28;20039;-63
2021/06/20 04:45:08;;;;;;;5.90;3.72;;;;;;;44.44;13.69;100528.63;5092291;28;20542;-63
2021/06/20 04:47:34;;;;;;;5.15;3.53;;;;;;;44.79;13.57;100533.31;5092784;28;20118;-62
2021/06/20 04:50:00;;;;;;;8.27;3.60;;;;;;;45.36;12.83;100527.53;5092686;28;20463;-62
2021/06/20 04:52:26;;;;;;;4.53;3.13;;;;;;;45.61;12.38;100479.59;5092824;28;20036;-64
2021/06/20 04:54:52;;;;;;;4.82;3.45;;;;;;;46.31;11.84;100518.50;5092872;28;20544;-63
2021/06/20 04:57:23;;;;;;;8.50;3.30;;;;;;;46.67;11.96;100528.22;5092401;28;20190;-64
2021/06/20 04:59:50;;;;;;;6.85;3.15;;;;;;;47.12;11.21;100520.75;5091221;28;20028;-64
2021/06/20 05:02:16;;;;;;;3.38;3.08;;;;;;;47.65;10.89;100516.31;5092236;28;20040;-62
2021/06/20 05:04:42;;;;;;;5.60;3.58;;;;;;;47.90;10.65;100474.47;5092056;28;20081;-63
2021/06/20 05:07:09;;;;;;;5.68;3.55;;;;;;;48.71;10.16;100523.59;5092542;28;20039;-62
2021/06/20 05:09:35;;;;;;;4.43;3.88;;;;;;;48.90;9.98;100508.63;5092313;28;20491;-62
2021/06/20 05:12:01;;;;;;;3.92;3.40;;;;;;;48.89;10.27;100512.69;5092145;28;20105;-62
2021/06/20 05:14:26;;;;;;;3.97;3.47;;;;;;;49.04;9.71;100513.00;5091340;28;20048;-62
2021/06/20 05:16:52;;;;;;;3.80;3.38;;;;;;;49.18;9.48;100516.19;5092289;28;20044;-63
2021/06/20 05:19:18;;;;;;;6.88;3.22;;;;;;;49.47;9.31;100513.97;5091764;28;20092;-63
2021/06/20 05:21:43;;;;;;;3.97;3.55;;;;;;;49.71;9.12;100514.88;5091885;28;20038;-63
2021/06/20 05:24:09;;;;;;;3.40;3.00;;;;;;;50.11;9.24;100522.16;5091816;28;20039;-64
2021/06/20 05:26:35;;;;;;;3.30;2.90;;;;;;;50.71;8.75;100527.69;5091779;28;20043;-62
2021/06/20 05:29:00;;;;;;;3.50;2.35;;;;;;;50.96;8.02;100514.66;5091527;28;20035;-62
2021/06/20 05:31:27;;;;;;;2.55;2.28;;;;;;;51.13;8.46;100515.31;5092565;28;20032;-62
2021/06/20 05:33:52;;;;;;;6.90;3.13;;;;;;;51.54;7.75;100506.88;5090810;28;20079;-63
2021/06/20 05:36:18;;;;;;;4.43;2.83;;;;;;;51.81;7.38;100466.81;5073656;28;20028;-63
2021/06/20 05:38:44;;;;;;;5.32;2.72;;;;;;;52.34;7.21;100504.91;5091936;28;20407;-63
2021/06/20 05:41:10;;;;;;;5.53;2.90;;;;;;;52.65;7.07;100507.53;5091907;28;20032;-63
2021/06/20 05:43:35;;;;;;;3.65;2.42;;;;;;;53.14;6.89;100507.47;5091724;28;20046;-64
2021/06/20 05:46:01;;;;;;;3.60;2.80;;;;;;;53.69;6.02;100515.06;5091341;28;20073;-63
2021/06/20 05:48:27;;;;;;;6.65;3.00;;;;;;;53.79;6.04;100502.84;5090330;28;20074;-68
2021/06/20 05:50:52;;;;;;;3.53;2.95;;;;;;;53.77;6.39;100508.13;5092060;28;20035;-66
2021/06/20 05:53:18;;;;;;;6.70;3.05;;;;;;;53.97;5.97;100495.50;5091906;28;20078;-64
2021/06/20 05:55:43;;;;;;;3.55;3.15;;;;;;;54.50;5.78;100516.81;5091447;28;20468;-63
2021/06/20 05:58:09;;;;;;;5.07;2.80;;;;;;;54.75;5.72;100510.28;5091341;28;20407;-61
2021/06/20 06:00:34;;;;;;;5.82;3.28;;;;;;;54.51;5.42;100464.03;5090571;28;20032;-64
2021/06/20 06:03:00;;;;;;;4.63;3.13;;;;;;;55.17;5.54;100511.38;5091973;28;20090;-61
2021/06/20 06:05:26;;;;;;;4.00;2.85;;;;;;;55.48;5.31;100510.84;5091513;28;20453;-63
2021/06/20 06:07:53;;;;;;;3.85;3.10;;;;;;;55.94;5.38;100509.75;5090896;28;20093;-63
2021/06/20 06:10:18;;;;;;;5.97;3.05;;;;;;;56.22;4.99;100507.09;5091551;28;20032;-63
2021/06/20 06:12:45;;;;;;;6.15;3.50;;;;;;;56.57;4.67;100504.34;5091082;28;20058;-63
2021/06/20 06:15:11;;;;;;;3.55;3.20;;;;;;;56.62;4.92;100504.66;5090888;28;20044;-61
2021/06/20 06:17:37;;;;;;;5.63;3.50;;;;;;;56.79;4.80;100487.69;5090580;28;20043;-61
2021/06/20 06:20:04;;;;;;;4.57;3.38;;;;;;;57.14;4.93;100491.38;5091257;28;20040;-61
2021/06/20 06:22:29;;;;;;;4.72;4.32;;;;;;;57.38;4.05;100505.88;5091138;28;20533;-62
2021/06/20 06:24:55;;;;;;;5.57;4.15;;;;;;;57.12;4.10;100456.47;5089310;28;20058;-62
2021/06/20 06:27:21;;;;;;;4.35;3.95;;;;;;;57.68;4.21;100507.13;5090607;28;20203;-63
2021/06/20 06:29:46;;;;;;;4.60;4.05;;;;;;;57.79;3.94;100504.09;5090479;28;20505;-64
2021/06/20 06:32:12;;;;;;;4.80;4.00;;;;;;;58.23;3.47;100501.34;5090610;28;20032;-63
2021/06/20 06:34:39;;;;;;;6.72;4.70;;;;;;;58.59;3.46;100505.66;5090449;28;20036;-63
2021/06/20 06:37:05;;;;;;;4.45;3.75;;;;;;;58.42;3.49;100510.47;5088718;28;20046;-63
2021/06/20 06:39:31;;;;;;;7.28;4.28;;;;;;;57.94;3.66;100510.44;5090677;28;20052;-68
2021/06/20 06:41:58;;;;;;;4.72;4.43;;;;;;;57.80;3.66;100508.59;5090355;28;20099;-70
2021/06/20 06:44:24;;;;;;;5.38;4.18;;;;;;;57.90;3.75;100503.94;5090095;28;20035;-63
2021/06/20 06:46:50;;;;;;;3.83;3.53;;;;;;;57.81;4.09;100487.19;5090144;28;20035;-64
2021/06/20 06:49:15;;;;;;;6.30;4.30;;;;;;;57.77;3.79;100507.38;5089124;28;20036;-62
2021/06/20 06:51:41;;;;;;;4.07;3.83;;;;;;;57.63;3.42;100470.16;5089894;28;20507;-64
2021/06/20 06:54:07;;;;;;;5.38;3.67;;;;;;;57.71;3.58;100500.50;5088885;28;20089;-63
2021/06/20 06:56:33;;;;;;;6.78;3.83;;;;;;;58.10;3.51;100497.41;5092863;28;20023;-61
2021/06/20 06:58:59;;;;;;;5.88;5.25;;;;;;;58.39;3.78;100473.88;5091817;28;20042;-60
2021/06/20 07:01:25;;;;;;;5.25;4.85;;;;;;;58.55;3.27;100499.94;5090116;28;20120;-61
2021/06/20 07:03:52;;;;;;;6.43;4.50;;;;;;;58.32;3.63;100510.22;5090338;28;20472;-62
2021/06/20 07:06:24;;;;;;;5.95;4.50;;;;;;;58.08;3.07;100489.22;5089919;28;20536;-60
2021/06/20 07:08:52;;;;;;;4.78;4.47;;;;;;;58.08;3.37;100514.31;5088439;28;20043;-60
2021/06/20 07:11:17;;;;;;;5.18;4.80;;;;;;;58.35;3.38;100494.13;5089998;28;20062;-60
2021/06/20 07:13:43;;;;;;;4.97;4.53;;;;;;;58.36;2.76;100468.97;5089769;28;20044;-60
2021/06/20 07:16:08;;;;;;;4.43;4.13;;;;;;;58.37;2.88;100436.03;5088479;28;20059;-60
2021/06/20 07:18:34;;;;;;;5.97;4.93;;;;;;;59.00;2.99;100489.19;5090139;28;20036;-61
2021/06/20 07:21:00;;;;;;;5.93;4.75;;;;;;;59.32;2.76;100490.56;5089911;28;20398;-60
2021/06/20 07:23:26;;;;;;;5.70;5.18;;;;;;;59.46;2.52;100498.91;5089569;28;20140;-62
2021/06/20 07:25:52;;;;;;;6.60;6.03;;;;;;;59.35;2.51;100492.56;5089668;28;20673;-61
2021/06/20 07:28:17;;;;;;;6.75;6.22;;;;;;;59.23;3.20;100490.34;5090273;28;20071;-60
2021/06/20 07:30:48;;;;;;;6.13;5.50;;;;;;;59.36;2.72;100488.41;5089613;28;20036;-60
2021/06/20 07:33:14;;;;;;;6.65;6.18;;;;;;;59.33;2.72;100461.25;5089467;28;20035;-61
2021/06/20 07:35:40;;;;;;;6.57;6.15;;;;;;;59.60;2.34;100485.41;5088725;28;20595;-61
2021/06/20 07:38:05;;;;;;;7.18;6.68;;;;;;;59.42;2.79;100489.50;5088773;28;20040;-61
2021/06/20 07:40:31;;;;;;;6.57;5.97;;;;;;;59.25;2.38;100482.06;5089166;28;20475;-60
2021/06/20 07:42:56;;;;;;;6.82;6.25;;;;;;;59.16;2.76;100479.78;5089516;28;20036;-62
2021/06/20 07:45:22;;;;;;;6.72;6.13;;;;;;;59.12;2.63;100474.09;5089033;28;20032;-61
2021/06/20 07:47:47;;;;;;;7.18;6.57;;;;;;;59.25;2.44;100458.97;5090697;28;20063;-61
2021/06/20 07:50:13;;;;;;;7.85;7.05;;;;;;;59.55;2.57;100488.81;5093413;28;20043;-61
2021/06/20 07:52:40;;;;;;;8.48;7.03;;;;;;;59.54;2.29;100488.03;5092679;28;20036;-61
2021/06/20 07:55:07;;;;;;;6.78;6.03;;;;;;;59.74;2.59;100490.84;5092917;28;20118;-60
2021/06/20 07:57:33;;;;;;;7.45;6.88;;;;;;;60.00;2.76;100482.34;5093429;28;20093;-60
2021/06/20 07:59:59;;;;;;;7.55;6.95;;;;;;;60.10;2.33;100477.59;5091872;28;20032;-60
2021/06/20 08:02:24;;;;;;;8.70;8.00;;;;;;;59.90;2.97;100460.34;5092643;28;20032;-60
2021/06/20 08:04:50;;;;;;;8.10;7.40;;;;;;;59.43;2.62;100470.94;5093271;28;20039;-60
2021/06/20 08:07:16;;;;;;;8.80;8.10;;;;;;;59.09;2.79;100468.38;5093242;28;20035;-60
2021/06/20 08:09:42;;;;;;;7.63;7.03;;;;;;;58.54;3.29;100457.94;5093238;28;20036;-60
2021/06/20 08:12:09;;;;;;;7.85;7.30;;;;;;;57.69;3.56;100461.84;5092696;28;20059;-60
2021/06/20 08:14:35;;;;;;;6.93;6.53;;;;;;;56.73;4.27;100449.94;5093568;28;20047;-58
2021/06/20 08:17:02;;;;;;;6.78;6.18;;;;;;;55.61;4.40;100425.88;5093286;28;20078;-59
2021/06/20 08:19:27;;;;;;;5.88;5.35;;;;;;;54.86;4.49;100459.44;5091693;28;20038;-58
2021/06/20 08:21:53;;;;;;;4.70;4.30;;;;;;;53.91;5.07;100452.97;5092573;28;20046;-59
2021/06/20 08:24:19;;;;;;;4.68;4.28;;;;;;;52.17;5.87;100456.97;5093123;28;20483;-61
2021/06/20 08:26:45;;;;;;;7.90;2.97;;;;;;;49.52;7.85;100441.75;5093078;28;20416;-61
2021/06/20 08:29:13;;;;;;;3.05;2.40;;;;;;;46.89;9.36;100455.28;5092578;28;20564;-59
2021/06/20 08:31:39;;;;;;;4.50;2.85;;;;;;;44.45;11.65;100450.41;5092986;28;20479;-59
2021/06/20 08:34:07;;;;;;;5.10;2.65;;;;;;;42.32;13.19;100467.53;5092921;28;20048;-62
2021/06/20 08:36:34;;;;;;;5.80;2.72;;;;;;;40.71;14.28;100459.22;5092174;28;20032;-62
2021/06/20 08:38:59;;;;;;;5.78;2.55;;;;;;;39.41;15.73;100452.25;5092423;28;20123;-61
2021/06/20 08:41:27;;;;;;;5.93;2.90;;;;;;;38.35;16.18;100450.19;5092121;28;20131;-62
2021/06/20 08:43:53;;;;;;;2.97;2.40;;;;;;;37.43;17.51;100444.22;5092573;28;20032;-61
2021/06/20 08:46:19;;;;;;;4.60;2.80;;;;;;;36.32;18.68;100391.16;5092561;28;20046;-63
2021/06/20 08:48:45;;;;;;;5.13;2.80;;;;;;;35.80;19.57;100402.38;5092056;28;20127;-60
2021/06/20 08:51:11;;;;;;;6.88;2.63;;;;;;;35.71;20.38;100449.44;5095043;28;20451;-63
2021/06/20 08:53:37;;;;;;;3.17;2.88;;;;;;;35.38;20.34;100439.63;5098656;28;20083;-62
2021/06/20 08:56:03;;;;;;;6.97;2.70;;;;;;;34.70;20.85;100392.09;5090789;28;20032;-60
2021/06/20 08:58:32;;;;;;;5.57;2.58;;;;;;;34.49;21.49;100392.03;5091854;28;20436;-61
2021/06/20 09:00:59;;;;;;;5.32;2.33;;;;;;;34.60;21.32;100433.78;5100979;28;20039;-60
2021/06/20 09:03:35;;;;;;;2.75;2.22;;;;;;;34.51;21.33;100447.34;5100071;28;20092;-60
2021/06/20 09:06:04;;;;;;;3.97;2.80;;;;;;;34.21;21.60;100419.06;5101135;28;20036;-61
2021/06/20 09:08:30;;;;;;;3.95;2.83;;;;;;;33.91;22.09;100414.13;5084781;28;20124;-62
2021/06/20 09:10:58;;;;;;;2.42;2.22;;;;;;;33.89;21.48;100439.38;5101399;27;20090;-61
2021/06/20 09:13:32;;;;;;;2.92;2.45;;;;;;;33.75;21.95;100424.25;5100392;28;20195;-61
2021/06/20 09:16:04;;;;;;;4.65;2.63;;;;;;;33.69;22.37;100433.66;5092377;28;20055;-60
2021/06/20 09:18:30;;;;;;;2.88;2.42;;;;;;;33.49;22.45;100404.59;5092126;28;20028;-61
2021/06/20 09:20:56;;;;;;;5.03;2.75;;;;;;;33.31;22.75;100373.34;5092281;28;20169;-60
2021/06/20 09:23:22;;;;;;;2.72;2.20;;;;;;;33.55;23.03;100411.91;5092351;28;20032;-57
2021/06/20 09:25:57;;;;;;;3.63;2.67;;;;;;;33.60;24.01;100414.72;5091604;28;20491;-62
2021/06/20 09:28:31;;;;;;;4.40;2.45;;;;;;;33.69;23.71;100417.00;5091356;28;20035;-57
2021/06/20 09:30:57;;;;;;;3.70;2.70;;;;;;;33.50;23.35;100409.03;5091767;28;20047;-59
2021/06/20 09:33:28;;;;;;;2.83;2.58;;;;;;;33.47;23.86;100424.31;5091852;28;20028;-60
2021/06/20 09:35:58;;;;;;;4.35;2.28;;;;;;;33.21;23.97;100406.53;5091681;28;20119;-61
2021/06/20 09:38:29;;;;;;;4.05;2.40;;;;;;;33.20;24.11;100408.47;5091205;28;20032;-61
2021/06/20 09:41:10;;;;;;;2.40;2.25;;;;;;;33.20;23.95;100411.25;5092145;28;20396;-60
2021/06/20 09:43:38;;;;;;;2.40;2.20;;;;;;;33.05;23.69;100413.84;5091759;28;20512;-60
2021/06/20 09:46:04;;;;;;;4.88;2.35;;;;;;;33.02;23.31;100398.56;5091373;28;20483;-59
2021/06/20 09:48:31;;;;;;;2.30;2.05;;;;;;;33.14;23.34;100398.41;5089007;28;20050;-58
2021/06/20 09:51:11;;;;;;;3.45;2.42;;;;;;;33.21;23.57;100412.06;5090312;28;20024;-57
2021/06/20 09:53:40;;;;;;;3.88;2.45;;;;;;;33.08;23.96;100402.22;5091598;28;20046;-59
2021/06/20 09:56:28;;;;;;;4.55;2.47;;;;;;;32.71;23.90;100353.81;5089881;28;20055;-58
2021/06/20 09:59:06;;;;;;;2.45;2.17;;;;;;;32.49;24.25;100328.91;5091268;28;20044;-59
2021/06/20 10:01:35;;;;;;;5.53;2.60;;;;;;;32.90;24.50;100395.09;5091597;28;20035;-60
2021/06/20 10:04:01;;;;;;;4.07;2.50;;;;;;;32.94;23.84;100390.69;5091324;28;20036;-58
2021/06/20 10:06:27;;;;;;;5.45;2.47;;;;;;;32.85;23.89;100375.59;5091157;28;20039;-61
2021/06/20 10:08:53;;;;;;;3.97;2.50;;;;;;;32.74;23.85;100374.66;5091180;28;20031;-59
2021/06/20 10:11:19;;;;;;;3.05;2.55;;;;;;;32.83;24.62;100380.56;5090899;28;20491;-59
2021/06/20 10:13:45;;;;;;;3.72;3.25;;;;;;;32.78;24.64;100376.63;5090830;28;20043;-63
2021/06/20 10:16:27;;;;;;;6.45;2.63;;;;;;;32.84;24.72;100374.75;5090858;28;20476;-60
2021/06/20 10:19:05;;;;;;;4.13;2.80;;;;;;;32.84;25.03;100371.97;5089443;28;20036;-59
2021/06/20 10:21:35;;;;;;;5.53;2.80;;;;;;;32.55;24.93;100315.91;5091385;28;20032;-59
2021/06/20 10:24:04;;;;;;;3.50;2.70;;;;;;;33.02;24.88;100370.81;5090472;28;20549;-55
2021/06/20 10:26:31;;;;;;;3.35;2.50;;;;;;;33.08;24.63;100357.84;5090575;28;20115;-58
2021/06/20 10:28:57;;;;;;;2.80;2.60;;;;;;;33.17;24.56;100363.75;5090226;28;20399;-57
2021/06/20 10:31:34;;;;;;;5.15;2.70;;;;;;;33.27;25.15;100360.25;5090270;28;20028;-56
2021/06/20 10:34:18;;;;;;;3.67;2.67;;;;;;;33.31;24.17;100361.41;5090605;28;20031;-59
2021/06/20 10:36:45;;;;;;;5.07;2.40;;;;;;;33.05;24.27;100342.59;5090682;28;20036;-55
2021/06/20 10:39:14;;;;;;;5.40;2.60;;;;;;;33.09;23.70;100362.28;5091017;28;20036;-57
2021/06/20 10:41:39;;;;;;;3.67;2.33;;;;;;;33.09;24.26;100358.69;5090606;28;20027;-60
2021/06/20 10:44:05;;;;;;;3.08;2.63;;;;;;;33.07;23.69;100362.56;5090690;28;20077;-58
2021/06/20 10:46:31;;;;;;;3.25;2.20;;;;;;;32.86;23.93;100336.50;5090568;28;20080;-59
2021/06/20 10:48:58;;;;;;;5.43;2.50;;;;;;;32.78;23.42;100343.34;5090233;28;20399;-59
2021/06/20 10:51:23;;;;;;;4.00;2.50;;;;;;;32.70;23.53;100329.97;5090223;28;20032;-56
2021/06/20 10:53:50;;;;;;;4.22;2.75;;;;;;;32.82;23.35;100348.41;5090584;28;20039;-59
2021/06/20 10:56:25;;;;;;;3.03;2.50;;;;;;;32.57;23.20;100294.34;5090325;28;20057;-57
2021/06/20 10:58:53;;;;;;;3.95;2.40;;;;;;;32.76;23.99;100340.00;5090539;28;20039;-58
2021/06/20 11:01:22;;;;;;;3.75;2.88;;;;;;;32.73;23.99;100350.78;5090863;28;20081;-59
2021/06/20 11:03:59;;;;;;;3.88;2.50;;;;;;;32.69;24.49;100328.28;5090325;28;20118;-65
2021/06/20 11:06:25;;;;;;;3.25;2.88;;;;;;;32.72;24.56;100333.31;5090357;28;20024;-59
2021/06/20 11:09:06;;;;;;;2.75;2.55;;;;;;;32.54;24.18;100289.28;5090192;28;20039;-58
2021/06/20 11:11:52;;;;;;;9.68;3.60;;;;;;;32.83;24.66;100334.25;5090270;28;20052;-58
2021/06/20 11:14:19;;;;;;;4.20;2.85;;;;;;;32.79;24.80;100333.94;5090003;28;20040;-69
2021/06/20 11:16:47;;;;;;;3.78;2.80;;;;;;;32.76;25.13;100330.88;5090608;28;20527;-57
2021/06/20 11:19:23;;;;;;;6.30;2.80;;;;;;;32.83;25.15;100327.91;5090379;28;20057;-60
2021/06/20 11:21:58;;;;;;;4.50;2.95;;;;;;;32.67;24.80;100318.53;5088878;28;20403;-62
2021/06/20 11:24:37;;;;;;;2.88;2.50;;;;;;;32.71;25.20;100330.81;5089981;28;20043;-60
2021/06/20 11:27:18;;;;;;;2.72;2.50;;;;;;;32.64;25.43;100326.28;5090160;28;20040;-61